Time,TemperatureF,DewpointF,PressureIn,WindDirection,WindDirectionDegrees,WindSpeedMPH,WindSpeedGustMPH,Humidity,HourlyPrecipIn,Conditions,Clouds,dailyrainin,SoftwareType,DateUTC
2013-01-05 00:00:00,19.9,19.9,29.07,WNW,292,1.0,3.0,100,0.00,,CLR,0.00,VWS V15.00,2013-01-05 06:00:00,
2013-01-05 00:01:00,20.0,20.0,29.07,WNW,287,0.0,3.0,100,0.00,,CLR,0.00,VWS V14.01,2013-01-05 06:01:00,
2013-01-05 00:06:00,20.1,20.1,29.07,WNW,287,0.0,3.0,100,0.00,,CLR,0.00,VWS V14.01,2013-01-05 06:06:00,
2013-01-05 00:10:00,20.2,20.2,29.07,North,0,1.0,3.0,100,0.00,,,0.00,VWS V15.00,2013-01-05 06:10:00,
2013-01-05 00:11:00,20.3,20.3,29.06,North,0,0.0,1.0,100,0.00,,CLR,0.00,VWS V14.01,2013-01-05 06:11:00,
2013-01-05 00:20:00,20.3,20.3,29.09,SSW,202,3.0,6.0,100,0.00,,,0.00,VWS V15.00,2013-01-05 06:20:00,
2013-01-05 00:23:00,20.3,20.3,29.06,North,0,1.0,3.0,100,0.00,,CLR,0.00,VWS V14.01,2013-01-05 06:23:00,
2013-01-05 00:28:00,20.5,20.5,29.05,North,0,1.0,2.0,100,0.00,,CLR,0.00,VWS V14.01,2013-01-05 06:28:00,
2013-01-05 00:30:00,20.1,20.1,29.08,SSW,202,3.0,6.0,100,0.00,,,0.00,VWS V15.00,2013-01-05 06:30:00,
2013-01-05 00:33:00,20.5,20.5,29.05,North,0,0.0,3.0,100,0.00,,CLR,0.00,VWS V14.01,2013-01-05 06:33:00,
2013-01-05 00:38:00,20.5,20.5,29.05,North,0,0.0,3.0,100,0.00,,CLR,0.00,VWS V14.01,2013-01-05 06:38:00,
2013-01-05 00:40:00,20.0,20.0,29.08,SSW,202,2.0,4.0,100,0.00,,,0.00,VWS V15.00,2013-01-05 06:40:00,
2013-01-05 00:43:00,20.6,20.6,29.05,North,0,2.0,3.0,100,0.00,,CLR,0.00,VWS V14.01,2013-01-05 06:43:00,
2013-01-05 00:48:00,20.6,20.6,29.04,North,0,1.0,3.0,100,0.00,,CLR,0.00,VWS V14.01,2013-01-05 06:48:00,
2013-01-05 00:50:00,19.8,19.8,29.08,SSE,158,1.0,4.0,100,0.00,,,0.00,VWS V15.00,2013-01-05 06:50:00,
2013-01-05 00:53:00,20.5,20.5,29.04,North,0,0.0,3.0,100,0.00,,CLR,0.00,VWS V14.01,2013-01-05 06:53:00,
2013-01-05 00:58:00,20.4,20.4,29.04,North,0,0.0,3.0,100,0.00,,CLR,0.00,VWS V14.01,2013-01-05 06:58:00,
2013-01-05 01:00:00,19.9,19.9,29.07,WNW,292,1.0,3.0,100,0.00,,,0.00,VWS V15.00,2013-01-05 07:00:00,
2013-01-05 01:03:00,20.2,20.2,29.04,North,0,0.0,3.0,100,0.00,,CLR,0.00,VWS V14.01,2013-01-05 07:03:00,
2013-01-05 01:08:00,20.1,20.1,29.04,North,0,0.0,3.0,100,0.00,,CLR,0.00,VWS V14.01,2013-01-05 07:08:00,
2013-01-05 01:10:00,20.1,20.1,29.06,WNW,292,1.0,3.0,100,0.00,,,0.00,VWS V15.00,2013-01-05 07:10:00,
2013-01-05 01:13:00,19.9,19.9,29.05,North,0,3.0,3.0,100,0.00,,CLR,0.00,VWS V14.01,2013-01-05 07:13:00,
2013-01-05 01:18:00,19.5,19.5,29.05,South,174,3.0,4.0,100,0.00,,CLR,0.00,VWS V14.01,2013-01-05 07:18:00,
2013-01-05 01:20:00,20.3,20.3,29.06,North,0,1.0,3.0,100,0.00,,,0.00,VWS V15.00,2013-01-05 07:20:00,
2013-01-05 01:23:00,18.9,18.9,29.06,SSE,162,6.0,6.0,100,0.00,,CLR,0.00,VWS V14.01,2013-01-05 07:23:00,
2013-01-05 01:28:00,18.2,18.2,29.07,South,178,2.0,8.0,100,0.00,,CLR,0.00,VWS V14.01,2013-01-05 07:28:00,
2013-01-05 01:30:00,18.1,18.1,29.07,SSE,168,5.0,8.0,100,0.00,,,0.00,VWS V15.00,2013-01-05 07:30:00,
2013-01-05 01:33:00,17.9,17.9,29.07,SSE,151,8.0,8.0,100,0.00,,CLR,0.00,VWS V14.01,2013-01-05 07:33:00,
2013-01-05 01:38:00,17.6,17.6,29.08,SSE,168,3.0,8.0,100,0.00,,CLR,0.00,VWS V14.01,2013-01-05 07:38:00,
2013-01-05 01:40:00,18.2,18.2,29.08,SSW,196,4.0,6.0,100,0.00,,CLR,0.00,VWS V15.00,2013-01-05 07:40:00,
2013-01-05 01:43:00,17.3,17.3,29.07,South,174,2.0,7.0,100,0.00,,CLR,0.00,VWS V14.01,2013-01-05 07:43:00,
2013-01-05 01:48:00,17.1,17.1,29.08,South,173,2.0,7.0,100,0.00,,CLR,0.00,VWS V14.01,2013-01-05 07:48:00,
2013-01-05 01:50:00,18.3,18.3,29.08,SSW,213,2.0,5.0,100,0.00,,CLR,0.00,VWS V15.00,2013-01-05 07:50:00,
2013-01-05 01:53:00,17.0,17.0,29.08,South,175,2.0,4.0,100,0.00,,CLR,0.00,VWS V14.01,2013-01-05 07:53:00,
2013-01-05 01:58:00,16.9,16.9,29.08,South,178,1.0,4.0,100,0.00,,CLR,0.00,VWS V14.01,2013-01-05 07:58:00,
2013-01-05 02:00:00,16.9,16.9,29.08,South,182,2.0,4.0,100,0.00,,,0.00,VWS V15.00,2013-01-05 08:00:00,
2013-01-05 02:03:00,16.7,16.7,29.09,South,180,3.0,5.0,100,0.00,,CLR,0.00,VWS V14.01,2013-01-05 08:03:00,
2013-01-05 02:08:00,16.5,16.5,29.09,SSE,165,3.0,5.0,100,0.00,,CLR,0.00,VWS V14.01,2013-01-05 08:08:00,
2013-01-05 02:10:00,16.5,16.5,29.09,SSE,162,3.0,5.0,100,0.00,,,0.00,VWS V15.00,2013-01-05 08:10:00,
2013-01-05 02:13:00,16.5,16.5,29.09,SSE,158,1.0,3.0,100,0.00,,CLR,0.00,VWS V14.01,2013-01-05 08:13:00,
2013-01-05 02:18:00,16.7,16.7,29.08,SW,215,1.0,3.0,100,0.00,,CLR,0.00,VWS V14.01,2013-01-05 08:18:00,
2013-01-05 02:20:00,17.6,17.6,29.08,SSE,157,4.0,4.0,100,0.00,,CLR,0.00,VWS V15.00,2013-01-05 08:20:00,
2013-01-05 02:23:00,17.2,17.2,29.08,West,271,0.0,3.0,100,0.00,,CLR,0.00,VWS V14.01,2013-01-05 08:23:00,
2013-01-05 02:28:00,17.6,17.6,29.08,West,270,0.0,3.0,100,0.00,,CLR,0.00,VWS V14.01,2013-01-05 08:28:00,
2013-01-05 02:30:00,17.7,17.7,29.08,West,270,1.0,3.0,100,0.00,,,0.00,VWS V15.00,2013-01-05 08:30:00,
2013-01-05 02:33:00,18.0,18.0,29.08,SW,218,4.0,4.0,100,0.00,,CLR,0.00,VWS V14.01,2013-01-05 08:33:00,
2013-01-05 02:38:00,18.2,18.2,29.08,SSW,207,5.0,6.0,100,0.00,,CLR,0.00,VWS V14.01,2013-01-05 08:38:00,
2013-01-05 02:40:00,18.2,18.2,29.08,SSW,196,4.0,6.0,100,0.00,,,0.00,VWS V15.00,2013-01-05 08:40:00,
2013-01-05 02:43:00,18.3,18.3,29.08,SW,218,1.0,5.0,100,0.00,,CLR,0.00,VWS V14.01,2013-01-05 08:43:00,
2013-01-05 02:48:00,18.3,18.3,29.08,SSW,213,1.0,5.0,100,0.00,,CLR,0.00,VWS V14.01,2013-01-05 08:48:00,
2013-01-05 02:50:00,18.3,18.3,29.08,SSW,213,2.0,5.0,100,0.00,,,0.00,VWS V15.00,2013-01-05 08:50:00,
2013-01-05 02:53:00,18.2,18.2,29.08,South,189,4.0,4.0,100,0.00,,CLR,0.00,VWS V14.01,2013-01-05 08:53:00,
2013-01-05 02:58:00,18.1,18.1,29.08,South,170,1.0,4.0,100,0.00,,CLR,0.00,VWS V14.01,2013-01-05 08:58:00,
2013-01-05 03:00:00,18.3,18.3,29.05,ENE,60,3.0,6.0,100,0.00,,CLR,0.00,VWS V15.00,2013-01-05 09:00:00,
2013-01-05 03:03:00,17.8,17.8,29.08,South,170,3.0,5.0,100,0.00,,CLR,0.00,VWS V14.01,2013-01-05 09:03:00,
2013-01-05 03:08:00,17.7,17.7,29.08,SSE,167,1.0,5.0,100,0.00,,CLR,0.00,VWS V14.01,2013-01-05 09:08:00,
2013-01-05 03:10:00,17.7,17.7,29.08,SSE,167,1.0,5.0,100,0.00,,,0.00,VWS V15.00,2013-01-05 09:10:00,
2013-01-05 03:13:00,17.6,17.6,29.08,SSE,149,2.0,4.0,100,0.00,,CLR,0.00,VWS V14.01,2013-01-05 09:13:00,
2013-01-05 03:18:00,17.6,17.6,29.08,SSE,155,3.0,4.0,100,0.00,,CLR,0.00,VWS V14.01,2013-01-05 09:18:00,
2013-01-05 03:20:00,17.3,17.3,29.05,South,174,3.0,4.0,100,0.00,,CLR,0.00,VWS V15.00,2013-01-05 09:20:00,
2013-01-05 03:23:00,17.5,17.5,29.08,SE,143,2.0,5.0,100,0.00,,CLR,0.00,VWS V14.01,2013-01-05 09:23:00,
2013-01-05 03:28:00,17.6,17.6,29.07,SSE,168,1.0,5.0,100,0.00,,CLR,0.00,VWS V14.01,2013-01-05 09:28:00,
2013-01-05 03:30:00,17.6,17.6,29.07,SSW,192,1.0,5.0,100,0.00,,,0.00,VWS V15.00,2013-01-05 09:30:00,
2013-01-05 03:33:00,17.8,17.8,29.07,SSE,164,0.0,3.0,100,0.00,,CLR,0.00,VWS V14.01,2013-01-05 09:33:00,
2013-01-05 03:38:00,18.1,18.1,29.07,South,170,0.0,3.0,100,0.00,,CLR,0.00,VWS V14.01,2013-01-05 09:38:00,
2013-01-05 03:40:00,18.1,18.1,29.06,South,171,0.0,3.0,100,0.00,,,0.00,VWS V15.00,2013-01-05 09:40:00,
2013-01-05 03:43:00,18.2,18.2,29.06,SE,141,0.0,0.0,100,0.00,,CLR,0.00,VWS V14.01,2013-01-05 09:43:00,
2013-01-05 03:48:00,18.3,18.3,29.05,NE,47,1.0,2.0,100,0.00,,CLR,0.00,VWS V14.01,2013-01-05 09:48:00,
2013-01-05 03:50:00,18.4,18.4,29.06,NE,47,0.0,2.0,100,0.00,,,0.00,VWS V15.00,2013-01-05 09:50:00,
2013-01-05 03:53:00,18.4,18.4,29.05,NE,51,2.0,3.0,100,0.00,,CLR,0.00,VWS V14.01,2013-01-05 09:53:00,
2013-01-05 03:58:00,18.3,18.3,29.05,ENE,59,3.0,6.0,100,0.00,,CLR,0.00,VWS V14.01,2013-01-05 09:58:00,
2013-01-05 04:00:00,16.0,16.0,29.03,South,171,3.0,6.0,100,0.00,,CLR,0.00,VWS V15.00,2013-01-05 10:00:00,
2013-01-05 04:03:00,18.4,18.4,29.05,ENE,60,0.0,4.0,100,0.00,,CLR,0.00,VWS V14.01,2013-01-05 10:03:00,
2013-01-05 04:08:00,18.3,18.3,29.05,ENE,60,0.0,4.0,100,0.00,,CLR,0.00,VWS V14.01,2013-01-05 10:08:00,
2013-01-05 04:10:00,18.3,18.3,29.05,ENE,61,0.0,4.0,100,0.00,,,0.00,VWS V15.00,2013-01-05 10:10:00,
2013-01-05 04:13:00,18.1,18.1,29.05,SSE,163,1.0,3.0,100,0.00,,CLR,0.00,VWS V14.01,2013-01-05 10:13:00,
2013-01-05 04:18:00,17.5,17.5,29.05,South,172,3.0,4.0,100,0.00,,CLR,0.00,VWS V14.01,2013-01-05 10:18:00,
2013-01-05 04:20:00,17.3,17.3,29.05,South,174,3.0,4.0,100,0.00,,,0.00,VWS V15.00,2013-01-05 10:20:00,
2013-01-05 04:23:00,17.0,17.0,29.05,SSE,161,4.0,5.0,100,0.00,,CLR,0.00,VWS V14.01,2013-01-05 10:23:00,
2013-01-05 04:28:00,16.6,16.6,29.05,SE,142,5.0,6.0,100,0.00,,CLR,0.00,VWS V14.01,2013-01-05 10:28:00,
2013-01-05 04:30:00,16.6,16.6,29.05,SE,125,5.0,6.0,100,0.00,,,0.00,VWS V15.00,2013-01-05 10:30:00,
2013-01-05 04:33:00,16.6,16.6,29.04,ESE,116,5.0,7.0,100,0.00,,CLR,0.00,VWS V14.01,2013-01-05 10:33:00,
2013-01-05 04:38:00,16.7,16.7,29.03,ESE,111,2.0,7.0,100,0.00,,,0.00,VWS V14.01,2013-01-05 10:38:00,
2013-01-05 04:40:00,16.7,16.7,29.03,ESE,111,1.0,7.0,100,0.00,,,0.00,VWS V15.00,2013-01-05 10:40:00,
2013-01-05 04:43:00,16.9,16.9,29.03,ESE,111,1.0,2.0,100,0.00,,,0.00,VWS V14.01,2013-01-05 10:43:00,
2013-01-05 04:48:00,16.9,16.9,29.03,SSE,167,3.0,4.0,100,0.00,,,0.00,VWS V14.01,2013-01-05 10:48:00,
2013-01-05 04:50:00,16.8,16.8,29.03,South,172,3.0,5.0,100,0.00,,,0.00,VWS V15.00,2013-01-05 10:50:00,
2013-01-05 04:53:00,16.5,16.5,29.03,South,187,3.0,6.0,100,0.00,,,0.00,VWS V14.01,2013-01-05 10:53:00,
2013-01-05 04:58:00,16.2,16.2,29.03,South,183,4.0,6.0,100,0.00,,,0.00,VWS V14.01,2013-01-05 10:58:00,
2013-01-05 05:00:00,16.0,16.0,29.03,South,171,3.0,6.0,100,0.00,,,0.00,VWS V15.00,2013-01-05 11:00:00,
2013-01-05 05:03:00,15.8,15.8,29.03,SSE,153,4.0,6.0,100,0.00,,,0.00,VWS V14.01,2013-01-05 11:03:00,
2013-01-05 05:08:00,15.8,15.8,29.02,SE,139,4.0,8.0,100,0.00,,,0.00,VWS V14.01,2013-01-05 11:08:00,
2013-01-05 05:10:00,15.9,15.9,29.02,SE,140,5.0,8.0,100,0.00,,,0.00,VWS V15.00,2013-01-05 11:10:00,
2013-01-05 05:13:00,16.1,16.1,29.02,SE,135,5.0,7.0,100,0.00,,,0.00,VWS V14.01,2013-01-05 11:13:00,
2013-01-05 05:18:00,16.3,16.3,29.02,SSE,156,5.0,8.0,100,0.00,,,0.00,VWS V14.01,2013-01-05 11:18:00,
2013-01-05 05:20:00,16.4,16.4,29.02,SSE,153,3.0,8.0,100,0.00,,,0.00,VWS V15.00,2013-01-05 11:20:00,
2013-01-05 05:23:00,16.4,16.4,29.02,SSE,152,3.0,9.0,100,0.00,,,0.00,VWS V14.01,2013-01-05 11:23:00,
2013-01-05 05:28:00,16.5,16.5,29.01,SSE,161,3.0,9.0,100,0.00,,,0.00,VWS V14.01,2013-01-05 11:28:00,
2013-01-05 05:30:00,16.5,16.5,29.01,SSE,151,6.0,9.0,100,0.00,,,0.00,VWS V15.00,2013-01-05 11:30:00,
2013-01-05 05:33:00,16.5,16.5,29.01,SSE,158,5.0,7.0,100,0.00,,,0.00,VWS V14.01,2013-01-05 11:33:00,
2013-01-05 05:38:00,16.7,16.7,29.01,SSE,162,3.0,7.0,100,0.00,,,0.00,VWS V14.01,2013-01-05 11:38:00,
2013-01-05 05:40:00,16.7,16.7,29.03,SSE,167,1.0,6.0,100,0.00,,CLR,0.00,VWS V15.00,2013-01-05 11:40:00,
2013-01-05 05:43:00,16.7,16.7,29.02,SSE,165,6.0,8.0,100,0.00,,,0.00,VWS V14.01,2013-01-05 11:43:00,
2013-01-05 05:48:00,16.7,16.7,29.01,SSE,147,5.0,11.0,100,0.00,,,0.00,VWS V14.01,2013-01-05 11:48:00,
2013-01-05 05:50:00,16.8,16.8,29.02,SSE,152,3.0,11.0,100,0.00,,,0.00,VWS V15.00,2013-01-05 11:50:00,
2013-01-05 05:53:00,16.9,16.9,29.01,SSE,160,5.0,10.0,100,0.00,,,0.00,VWS V14.01,2013-01-05 11:53:00,
2013-01-05 05:58:00,17.0,17.0,29.02,SSE,165,3.0,10.0,100,0.00,,,0.00,VWS V14.01,2013-01-05 11:58:00,
2013-01-05 06:00:00,17.1,17.1,29.02,SSE,163,4.0,10.0,100,0.00,,,0.00,VWS V15.00,2013-01-05 12:00:00,
2013-01-05 06:03:00,17.1,17.1,29.02,SSE,166,2.0,7.0,100,0.00,,,0.00,VWS V14.01,2013-01-05 12:03:00,
2013-01-05 06:08:00,17.0,17.0,29.02,South,172,6.0,10.0,100,0.00,,,0.00,VWS V14.01,2013-01-05 12:08:00,
2013-01-05 06:10:00,17.0,17.0,29.02,SSE,162,5.0,10.0,100,0.00,,,0.00,VWS V15.00,2013-01-05 12:10:00,
2013-01-05 06:13:00,16.9,16.9,29.02,South,171,6.0,9.0,100,0.00,,,0.00,VWS V14.01,2013-01-05 12:13:00,
2013-01-05 06:18:00,16.9,16.9,29.03,SSE,167,3.0,9.0,100,0.00,,,0.00,VWS V14.01,2013-01-05 12:18:00,
2013-01-05 06:20:00,16.8,16.8,29.03,SSE,161,2.0,9.0,100,0.00,,,0.00,VWS V15.00,2013-01-05 12:20:00,
2013-01-05 06:23:00,16.9,16.9,29.03,South,170,2.0,5.0,100,0.00,,,0.00,VWS V14.01,2013-01-05 12:23:00,
2013-01-05 06:28:00,16.8,16.8,29.03,SSE,160,3.0,6.0,100,0.00,,,0.00,VWS V14.01,2013-01-05 12:28:00,
2013-01-05 06:30:00,16.8,16.8,29.03,SSE,167,3.0,6.0,100,0.00,,,0.00,VWS V15.00,2013-01-05 12:30:00,
2013-01-05 06:33:00,16.7,16.7,29.03,SSE,155,4.0,6.0,100,0.00,,,0.00,VWS V14.01,2013-01-05 12:33:00,
2013-01-05 06:38:00,16.7,16.7,29.03,South,171,2.0,6.0,100,0.00,,,0.00,VWS V14.01,2013-01-05 12:38:00,
2013-01-05 06:40:00,16.7,16.7,29.03,SSE,167,1.0,6.0,100,0.00,,,0.00,VWS V15.00,2013-01-05 12:40:00,
2013-01-05 06:43:00,16.6,16.6,29.03,SSE,168,4.0,6.0,100,0.00,,,0.00,VWS V14.01,2013-01-05 12:43:00,
2013-01-05 06:48:00,16.7,16.7,29.03,SSE,155,7.0,10.0,100,0.00,,,0.00,VWS V14.01,2013-01-05 12:48:00,
2013-01-05 06:50:00,16.7,16.7,29.03,SSE,162,6.0,10.0,100,0.00,,,0.00,VWS V15.00,2013-01-05 12:50:00,
2013-01-05 06:53:00,16.9,16.9,29.02,SSE,166,6.0,8.0,100,0.00,,,0.00,VWS V14.01,2013-01-05 12:53:00,
2013-01-05 06:58:00,17.1,17.1,29.02,SSE,155,4.0,8.0,100,0.00,,,0.00,VWS V14.01,2013-01-05 12:58:00,
2013-01-05 07:00:00,17.0,17.0,29.02,SSE,156,7.0,8.0,100,0.00,,,0.00,VWS V15.00,2013-01-05 13:00:00,
2013-01-05 07:03:00,17.1,17.1,29.02,SSE,157,4.0,8.0,100,0.00,,,0.00,VWS V14.01,2013-01-05 13:03:00,
2013-01-05 07:08:00,17.2,17.2,29.02,SSE,160,7.0,8.0,100,0.00,,,0.00,VWS V14.01,2013-01-05 13:08:00,
2013-01-05 07:10:00,16.9,16.9,28.99,SSE,164,3.0,9.0,100,0.00,,CLR,0.00,VWS V15.00,2013-01-05 13:10:00,
2013-01-05 07:13:00,17.2,17.2,29.01,SE,142,2.0,9.0,100,0.00,,,0.00,VWS V14.01,2013-01-05 13:13:00,
2013-01-05 07:18:00,17.2,17.2,29.01,SSE,153,5.0,9.0,100,0.00,,,0.00,VWS V14.01,2013-01-05 13:18:00,
2013-01-05 07:20:00,17.0,17.0,28.99,SSE,161,4.0,8.0,100,0.00,,CLR,0.00,VWS V15.00,2013-01-05 13:20:00,
2013-01-05 07:23:00,17.1,17.1,29.01,SSE,157,6.0,7.0,100,0.00,,,0.00,VWS V14.01,2013-01-05 13:23:00,
2013-01-05 07:28:00,17.0,17.0,29.01,SSE,164,2.0,7.0,100,0.00,,,0.00,VWS V14.01,2013-01-05 13:28:00,
2013-01-05 07:30:00,17.0,17.0,29.01,SSE,155,5.0,8.0,100,0.00,,,0.00,VWS V15.00,2013-01-05 13:30:00,
2013-01-05 07:33:00,17.0,17.0,29.01,SE,146,5.0,6.0,100,0.00,,,0.00,VWS V14.01,2013-01-05 13:33:00,
2013-01-05 07:38:00,16.9,16.9,29.01,SE,136,5.0,7.0,100,0.00,,CLR,0.00,VWS V14.01,2013-01-05 13:38:00,
2013-01-05 07:40:00,16.9,16.9,29.00,SSE,151,5.0,7.0,100,0.00,,,0.00,VWS V15.00,2013-01-05 13:40:00,
2013-01-05 07:43:00,16.9,16.9,29.00,SSE,167,3.0,7.0,100,0.00,,CLR,0.00,VWS V14.01,2013-01-05 13:43:00,
2013-01-05 07:48:00,16.9,16.9,29.01,SSE,149,5.0,8.0,100,0.00,,CLR,0.00,VWS V14.01,2013-01-05 13:48:00,
2013-01-05 07:50:00,16.9,16.9,29.00,SSE,149,6.0,8.0,100,0.00,,,0.00,VWS V15.00,2013-01-05 13:50:00,
2013-01-05 07:53:00,16.9,16.9,29.00,SE,142,3.0,8.0,100,0.00,,CLR,0.00,VWS V14.01,2013-01-05 13:53:00,
2013-01-05 07:58:00,16.9,16.9,29.00,SSE,164,3.0,9.0,100,0.00,,CLR,0.00,VWS V14.01,2013-01-05 13:58:00,
2013-01-05 08:00:00,18.7,18.7,29.00,SSE,167,6.0,9.0,100,0.00,,CLR,0.00,VWS V15.00,2013-01-05 14:00:00,
2013-01-05 08:03:00,16.9,16.9,29.00,SSE,164,7.0,7.0,100,0.00,,CLR,0.00,VWS V14.01,2013-01-05 14:03:00,
2013-01-05 08:08:00,16.8,16.8,28.99,SE,146,5.0,9.0,100,0.00,,CLR,0.00,VWS V14.01,2013-01-05 14:08:00,
2013-01-05 08:10:00,16.9,16.9,28.99,SSE,164,3.0,9.0,100,0.00,,,0.00,VWS V15.00,2013-01-05 14:10:00,
2013-01-05 08:13:00,16.9,16.9,28.99,SSE,159,4.0,8.0,100,0.00,,CLR,0.00,VWS V14.01,2013-01-05 14:13:00,
2013-01-05 08:18:00,17.0,17.0,28.99,South,170,3.0,8.0,100,0.00,,CLR,0.00,VWS V14.01,2013-01-05 14:18:00,
2013-01-05 08:20:00,17.0,17.0,28.99,SSE,161,4.0,8.0,100,0.00,,,0.00,VWS V15.00,2013-01-05 14:20:00,
2013-01-05 08:23:00,17.1,17.1,28.99,SE,132,7.0,8.0,100,0.00,,CLR,0.00,VWS V14.01,2013-01-05 14:23:00,
2013-01-05 08:28:00,17.3,17.3,28.99,SSE,164,6.0,8.0,100,0.00,,CLR,0.00,VWS V14.01,2013-01-05 14:28:00,
2013-01-05 08:30:00,20.7,20.7,29.01,SSE,156,7.0,9.0,100,0.00,,CLR,0.00,VWS V15.00,2013-01-05 14:30:00,
2013-01-05 08:33:00,17.5,17.5,28.99,SSE,167,4.0,8.0,100,0.00,,CLR,0.00,VWS V14.01,2013-01-05 14:33:00,
2013-01-05 08:38:00,17.6,17.6,28.99,SSE,152,3.0,9.0,100,0.00,,,0.00,VWS V14.01,2013-01-05 14:38:00,
2013-01-05 08:40:00,17.7,17.7,28.99,SSE,160,6.0,9.0,100,0.00,,,0.00,VWS V15.00,2013-01-05 14:40:00,
2013-01-05 08:43:00,17.8,17.8,28.99,SSE,159,4.0,7.0,100,0.00,,,0.00,VWS V14.01,2013-01-05 14:43:00,
2013-01-05 08:48:00,18.1,18.1,29.00,SSE,157,9.0,9.0,100,0.00,,,0.00,VWS V14.01,2013-01-05 14:48:00,
2013-01-05 08:50:00,18.1,18.1,29.00,SSE,147,5.0,9.0,100,0.00,,,0.00,VWS V15.00,2013-01-05 14:50:00,
2013-01-05 08:53:00,18.3,18.3,29.00,SSE,162,7.0,8.0,100,0.00,,,0.00,VWS V14.01,2013-01-05 14:53:00,
2013-01-05 08:58:00,18.6,18.6,29.00,SSE,163,6.0,9.0,100,0.00,,,0.00,VWS V14.01,2013-01-05 14:58:00,
2013-01-05 09:00:00,18.7,18.7,29.00,SSE,167,6.0,9.0,100,0.00,,,0.00,VWS V15.00,2013-01-05 15:00:00,
2013-01-05 09:03:00,18.9,18.9,29.00,SSE,154,5.0,8.0,100,0.00,,,0.00,VWS V14.01,2013-01-05 15:03:00,
2013-01-05 09:08:00,19.2,19.2,29.00,SSE,150,8.0,9.0,100,0.00,,,0.00,VWS V14.01,2013-01-05 15:08:00,
2013-01-05 09:10:00,19.4,19.4,29.00,SSE,147,6.0,9.0,100,0.00,,,0.00,VWS V15.00,2013-01-05 15:10:00,
2013-01-05 09:13:00,19.6,19.6,29.00,SSE,152,7.0,9.0,100,0.00,,,0.00,VWS V14.01,2013-01-05 15:13:00,
2013-01-05 09:18:00,19.9,19.9,29.00,SE,145,4.0,9.0,100,0.00,,,0.00,VWS V14.01,2013-01-05 15:18:00,
2013-01-05 09:20:00,20.0,20.0,29.00,SSE,158,5.0,9.0,100,0.00,,,0.00,VWS V15.00,2013-01-05 15:20:00,
2013-01-05 09:23:00,20.3,20.3,29.01,SSE,160,4.0,7.0,100,0.00,,,0.00,VWS V14.01,2013-01-05 15:23:00,
2013-01-05 09:28:00,20.6,20.6,29.02,SE,141,3.0,8.0,100,0.00,,,0.00,VWS V14.01,2013-01-05 15:28:00,
2013-01-05 09:30:00,20.7,20.7,29.01,SSE,156,7.0,9.0,100,0.00,,,0.00,VWS V15.00,2013-01-05 15:30:00,
2013-01-05 09:33:00,21.1,21.1,29.01,SSE,165,4.0,8.0,100,0.00,,,0.00,VWS V14.01,2013-01-05 15:33:00,
2013-01-05 09:38:00,21.4,21.4,29.01,South,175,3.0,8.0,100,0.00,,,0.00,VWS V14.01,2013-01-05 15:38:00,
2013-01-05 09:40:00,21.5,21.5,29.01,SSE,155,4.0,8.0,100,0.00,,,0.00,VWS V15.00,2013-01-05 15:40:00,
2013-01-05 09:43:00,21.9,21.9,29.01,SE,137,3.0,10.0,100,0.00,,,0.00,VWS V14.01,2013-01-05 15:43:00,
2013-01-05 09:48:00,22.2,22.2,29.01,South,179,2.0,11.0,100,0.00,,,0.00,VWS V14.01,2013-01-05 15:48:00,
2013-01-05 09:50:00,25.8,25.8,28.98,South,178,1.0,11.0,100,0.00,,CLR,0.00,VWS V15.00,2013-01-05 15:50:00,
2013-01-05 09:53:00,22.7,22.7,29.00,SSW,201,4.0,10.0,100,0.00,,,0.00,VWS V14.01,2013-01-05 15:53:00,
2013-01-05 09:58:00,23.1,23.1,29.00,South,191,7.0,13.0,100,0.00,,,0.00,VWS V14.01,2013-01-05 15:58:00,
2013-01-05 10:00:00,23.3,23.3,29.00,SSW,208,1.0,13.0,100,0.00,,,0.00,VWS V15.00,2013-01-05 16:00:00,
2013-01-05 10:03:00,23.5,23.5,29.00,SE,141,2.0,9.0,100,0.00,,,0.00,VWS V14.01,2013-01-05 16:03:00,
2013-01-05 10:08:00,23.8,23.8,29.00,South,175,1.0,11.0,100,0.00,,,0.00,VWS V14.01,2013-01-05 16:08:00,
2013-01-05 10:10:00,23.8,23.8,29.00,SSE,168,6.0,12.0,100,0.00,,,0.00,VWS V15.00,2013-01-05 16:10:00,
2013-01-05 10:13:00,24.1,24.1,29.00,SSE,163,6.0,11.0,100,0.00,,,0.00,VWS V14.01,2013-01-05 16:13:00,
2013-01-05 10:18:00,24.4,24.4,29.00,SE,130,6.0,13.0,100,0.00,,,0.00,VWS V14.01,2013-01-05 16:18:00,
2013-01-05 10:20:00,24.5,24.5,29.00,ESE,122,2.0,13.0,100,0.00,,,0.00,VWS V15.00,2013-01-05 16:20:00,
2013-01-05 10:23:00,24.7,24.7,29.00,SSE,149,2.0,9.0,100,0.00,,,0.00,VWS V14.01,2013-01-05 16:23:00,
2013-01-05 10:28:00,24.9,24.9,29.00,SSE,156,7.0,15.0,100,0.00,,,0.00,VWS V14.01,2013-01-05 16:28:00,
2013-01-05 10:30:00,25.0,25.0,29.00,South,176,11.0,15.0,100,0.00,,,0.00,VWS V15.00,2013-01-05 16:30:00,
2013-01-05 10:33:00,25.1,25.1,29.00,SSE,168,3.0,13.0,100,0.00,,,0.00,VWS V14.01,2013-01-05 16:33:00,
2013-01-05 10:38:00,25.3,25.3,29.00,SSE,167,2.0,13.0,100,0.00,,,0.00,VWS V14.01,2013-01-05 16:38:00,
2013-01-05 10:40:00,25.4,25.4,28.99,SSE,162,1.0,13.0,100,0.00,,,0.00,VWS V15.00,2013-01-05 16:40:00,
2013-01-05 10:43:00,25.5,25.5,28.99,South,186,4.0,6.0,100,0.00,,,0.00,VWS V14.01,2013-01-05 16:43:00,
2013-01-05 10:48:00,25.7,25.7,28.98,South,191,10.0,11.0,100,0.00,,,0.00,VWS V14.01,2013-01-05 16:48:00,
2013-01-05 10:50:00,25.8,25.8,28.98,South,178,1.0,11.0,100,0.00,,,0.00,VWS V15.00,2013-01-05 16:50:00,
2013-01-05 10:53:00,25.9,25.9,28.98,SSE,147,1.0,10.0,100,0.00,,,0.00,VWS V14.01,2013-01-05 16:53:00,
2013-01-05 10:58:00,26.1,26.1,28.98,SSW,205,2.0,13.0,100,0.00,,,0.00,VWS V14.01,2013-01-05 16:58:00,
2013-01-05 11:00:00,26.2,26.2,28.98,SSW,198,4.0,13.0,100,0.00,,,0.00,VWS V15.00,2013-01-05 17:00:00,
2013-01-05 11:03:00,26.2,26.2,28.97,South,170,8.0,9.0,100,0.00,,,0.00,VWS V14.01,2013-01-05 17:03:00,
2013-01-05 11:08:00,26.1,26.1,28.97,SSW,198,4.0,10.0,100,0.00,,,0.00,VWS V14.01,2013-01-05 17:08:00,
2013-01-05 11:10:00,26.0,26.0,28.97,South,189,5.0,10.0,100,0.00,,,0.00,VWS V15.00,2013-01-05 17:10:00,
2013-01-05 11:13:00,26.0,26.0,28.97,South,181,9.0,9.0,100,0.00,,,0.00,VWS V14.01,2013-01-05 17:13:00,
2013-01-05 11:18:00,26.0,26.0,28.96,SSW,195,9.0,12.0,100,0.00,,,0.00,VWS V14.01,2013-01-05 17:18:00,
2013-01-05 11:20:00,26.0,26.0,28.96,SSW,194,3.0,12.0,100,0.00,,,0.00,VWS V15.00,2013-01-05 17:20:00,
2013-01-05 11:23:00,26.1,26.1,28.96,South,184,5.0,8.0,100,0.00,,,0.00,VWS V14.01,2013-01-05 17:23:00,
2013-01-05 11:28:00,26.4,26.4,28.96,SSE,168,1.0,10.0,100,0.00,,,0.00,VWS V14.01,2013-01-05 17:28:00,
2013-01-05 11:30:00,30.4,30.4,28.92,South,189,10.0,15.0,100,0.00,,CLR,0.00,VWS V15.00,2013-01-05 17:30:00,
2013-01-05 11:33:00,26.6,26.6,28.95,South,183,4.0,10.0,100,0.00,,,0.00,VWS V14.01,2013-01-05 17:33:00,
2013-01-05 11:38:00,27.0,27.0,28.96,South,179,2.0,10.0,100,0.00,,,0.00,VWS V14.01,2013-01-05 17:38:00,
2013-01-05 11:40:00,27.1,27.1,28.95,South,188,11.0,11.0,100,0.00,,,0.00,VWS V15.00,2013-01-05 17:40:00,
2013-01-05 11:43:00,27.3,27.3,28.95,South,177,4.0,11.0,100,0.00,,,0.00,VWS V14.01,2013-01-05 17:43:00,
2013-01-05 11:48:00,27.7,27.7,28.95,South,183,1.0,11.0,100,0.00,,,0.00,VWS V14.01,2013-01-05 17:48:00,
2013-01-05 11:50:00,27.7,27.7,28.95,South,190,2.0,11.0,100,0.00,,,0.00,VWS V15.00,2013-01-05 17:50:00,
2013-01-05 11:53:00,27.9,27.9,28.94,SE,144,4.0,7.0,100,0.00,,,0.00,VWS V14.01,2013-01-05 17:53:00,
2013-01-05 11:58:00,28.3,28.3,28.94,South,191,2.0,7.0,100,0.00,,,0.00,VWS V14.01,2013-01-05 17:58:00,
2013-01-05 12:00:00,28.4,28.4,28.94,SSW,205,5.0,7.0,100,0.00,,,0.00,VWS V15.00,2013-01-05 18:00:00,
2013-01-05 12:03:00,28.6,28.6,28.94,South,188,5.0,7.0,100,0.00,,,0.00,VWS V14.01,2013-01-05 18:03:00,
2013-01-05 12:08:00,29.0,29.0,28.93,South,185,3.0,7.0,100,0.00,,,0.00,VWS V14.01,2013-01-05 18:08:00,
2013-01-05 12:10:00,29.1,29.1,28.93,South,170,4.0,7.0,100,0.00,,,0.00,VWS V15.00,2013-01-05 18:10:00,
2013-01-05 12:13:00,29.3,29.3,28.93,SSW,192,6.0,10.0,100,0.00,,,0.00,VWS V14.01,2013-01-05 18:13:00,
2013-01-05 12:18:00,29.6,29.6,28.93,SSE,152,6.0,10.0,100,0.00,,,0.00,VWS V14.01,2013-01-05 18:18:00,
2013-01-05 12:20:00,29.7,29.7,28.89,SSE,160,9.0,11.0,100,0.00,,CLR,0.00,VWS V15.00,2013-01-05 18:20:00,
2013-01-05 12:23:00,29.9,29.9,28.92,South,171,2.0,8.0,100,0.00,,,0.00,VWS V14.01,2013-01-05 18:23:00,
2013-01-05 12:28:00,30.3,30.3,28.92,SSE,153,4.0,9.0,100,0.00,,,0.00,VWS V14.01,2013-01-05 18:28:00,
2013-01-05 12:30:00,30.4,30.4,28.92,South,189,10.0,15.0,100,0.00,,,0.00,VWS V15.00,2013-01-05 18:30:00,
2013-01-05 12:33:00,30.6,30.6,28.91,SSW,192,1.0,11.0,100,0.00,,,0.00,VWS V14.01,2013-01-05 18:33:00,
2013-01-05 12:38:00,31.0,31.0,28.91,SSW,192,3.0,14.0,100,0.00,,,0.00,VWS V14.01,2013-01-05 18:38:00,
2013-01-05 12:40:00,31.1,31.1,28.91,SSE,158,3.0,14.0,100,0.00,,,0.00,VWS V15.00,2013-01-05 18:40:00,
2013-01-05 12:43:00,31.0,31.0,28.91,South,187,4.0,10.0,100,0.00,,,0.00,VWS V14.01,2013-01-05 18:43:00,
2013-01-05 12:48:00,31.0,31.0,28.91,South,188,1.0,15.0,100,0.00,,,0.00,VWS V14.01,2013-01-05 18:48:00,
2013-01-05 12:50:00,30.8,-21.4,28.87,SSW,193,7.0,13.0,9,0.00,,CLR,0.00,VWS V15.00,2013-01-05 18:50:00,
2013-01-05 12:53:00,31.0,31.0,28.91,South,189,5.0,17.0,100,0.00,,,0.00,VWS V14.01,2013-01-05 18:53:00,
2013-01-05 12:58:00,31.1,31.1,28.90,SSE,168,2.0,17.0,100,0.00,,,0.00,VWS V14.01,2013-01-05 18:58:00,
2013-01-05 13:00:00,31.2,31.2,28.90,South,181,7.0,17.0,100,0.00,,,0.00,VWS V15.00,2013-01-05 19:00:00,
2013-01-05 13:03:00,31.1,31.1,28.90,SSE,147,6.0,14.0,100,0.00,,,0.00,VWS V14.01,2013-01-05 19:03:00,
2013-01-05 13:08:00,30.7,30.7,28.90,SSW,202,4.0,14.0,100,0.00,,,0.00,VWS V14.01,2013-01-05 19:08:00,
2013-01-05 13:10:00,30.4,30.4,28.90,SSE,163,6.0,14.0,100,0.00,,,0.00,VWS V15.00,2013-01-05 19:10:00,
2013-01-05 13:13:00,30.1,30.1,28.90,SE,134,6.0,9.0,100,0.00,,,0.00,VWS V14.01,2013-01-05 19:13:00,
2013-01-05 13:18:00,29.8,29.8,28.90,SSE,163,6.0,11.0,100,0.00,,,0.00,VWS V14.01,2013-01-05 19:18:00,
2013-01-05 13:20:00,29.7,29.7,28.89,SSE,160,9.0,11.0,100,0.00,,,0.00,VWS V15.00,2013-01-05 19:20:00,
2013-01-05 13:23:00,29.5,29.5,28.89,South,176,2.0,12.0,100,0.00,,,0.00,VWS V14.01,2013-01-05 19:23:00,
2013-01-05 13:28:00,29.5,29.5,28.89,South,176,2.0,15.0,100,0.00,,,0.00,VWS V14.01,2013-01-05 19:28:00,
2013-01-05 13:30:00,29.4,29.4,28.89,SSW,194,5.0,15.0,100,0.00,,,0.00,VWS V15.00,2013-01-05 19:30:00,
2013-01-05 13:33:00,29.5,29.5,28.89,SSE,166,13.0,13.0,100,0.00,,,0.00,VWS V14.01,2013-01-05 19:33:00,
2013-01-05 13:38:00,29.7,29.7,28.88,South,174,2.0,13.0,100,0.00,,SCT120,0.00,VWS V14.01,2013-01-05 19:38:00,
2013-01-05 13:40:00,31.9,31.9,28.86,SSW,200,3.0,13.0,100,0.00,,CLR,0.00,VWS V15.00,2013-01-05 19:40:00,
2013-01-05 13:43:00,30.2,30.2,28.88,South,187,8.0,11.0,100,0.00,,SCT120,0.00,VWS V14.01,2013-01-05 19:43:00,
2013-01-05 13:48:00,30.6,30.6,28.88,South,190,9.0,13.0,100,0.00,,SCT120,0.00,VWS V14.01,2013-01-05 19:48:00,
2013-01-05 13:50:00,30.8,-21.4,28.87,SSW,193,7.0,13.0,9,0.00,,,0.00,VWS V15.00,2013-01-05 19:50:00,
2013-01-05 13:53:00,30.9,-14.2,28.87,SE,144,12.0,12.0,13,0.00,,SCT120,0.00,VWS V14.01,2013-01-05 19:53:00,
2013-01-05 13:58:00,31.2,-6.2,28.87,South,173,9.0,14.0,19,0.00,,SCT120,0.00,VWS V14.01,2013-01-05 19:58:00,
2013-01-05 14:00:00,31.3,-21.0,28.87,South,189,6.0,15.0,9,0.00,,,0.00,VWS V15.00,2013-01-05 20:00:00,
2013-01-05 14:03:00,31.3,31.3,28.87,South,187,9.0,10.0,100,0.00,,SCT120,0.00,VWS V14.01,2013-01-05 20:03:00,
2013-01-05 14:08:00,31.4,31.4,28.86,South,183,4.0,11.0,100,0.00,,SCT120,0.00,VWS V14.01,2013-01-05 20:08:00,
2013-01-05 14:10:00,31.4,31.4,28.86,South,190,3.0,11.0,100,0.00,,,0.00,VWS V15.00,2013-01-05 20:10:00,
2013-01-05 14:13:00,31.4,31.4,28.86,South,189,5.0,12.0,100,0.00,,SCT120,0.00,VWS V14.01,2013-01-05 20:13:00,
2013-01-05 14:18:00,31.5,31.5,28.86,SSE,149,2.0,16.0,100,0.00,,SCT120,0.00,VWS V14.01,2013-01-05 20:18:00,
2013-01-05 14:20:00,31.5,31.5,28.86,South,190,6.0,16.0,100,0.00,,,0.00,VWS V15.00,2013-01-05 20:20:00,
2013-01-05 14:23:00,31.6,31.6,28.86,WSW,239,0.0,9.0,100,0.00,,SCT120,0.00,VWS V14.01,2013-01-05 20:23:00,
2013-01-05 14:28:00,31.7,31.7,28.86,SE,146,1.0,12.0,100,0.00,,SCT120,0.00,VWS V14.01,2013-01-05 20:28:00,
2013-01-05 14:30:00,31.9,31.9,28.85,South,171,3.0,13.0,100,0.00,,CLR,0.00,VWS V15.00,2013-01-05 20:30:00,
2013-01-05 14:33:00,31.8,31.8,28.86,SSE,159,9.0,9.0,100,0.00,,SCT120,0.00,VWS V14.01,2013-01-05 20:33:00,
2013-01-05 14:38:00,31.9,31.9,28.86,SSE,159,3.0,13.0,100,0.00,,SCT120,0.00,VWS V14.01,2013-01-05 20:38:00,
2013-01-05 14:40:00,31.9,31.9,28.86,SSW,200,3.0,13.0,100,0.00,,,0.00,VWS V15.00,2013-01-05 20:40:00,
2013-01-05 14:43:00,31.9,31.9,28.86,South,187,3.0,7.0,100,0.00,,SCT120,0.00,VWS V14.01,2013-01-05 20:43:00,
2013-01-05 14:48:00,32.1,32.1,28.86,SSW,195,6.0,9.0,100,0.00,,SCT120,0.00,VWS V14.01,2013-01-05 20:48:00,
2013-01-05 14:50:00,32.1,32.1,28.87,SSE,159,5.0,9.0,100,0.00,,,0.00,VWS V15.00,2013-01-05 20:50:00,
2013-01-05 14:53:00,32.1,32.1,28.86,South,173,1.0,16.0,100,0.00,,SCT100,0.00,VWS V14.01,2013-01-05 20:53:00,
2013-01-05 14:58:00,32.0,32.0,28.86,South,191,6.0,16.0,100,0.00,,SCT100,0.00,VWS V14.01,2013-01-05 20:58:00,
2013-01-05 15:00:00,32.0,32.0,28.86,SSW,198,6.0,16.0,100,0.00,,,0.00,VWS V15.00,2013-01-05 21:00:00,
2013-01-05 15:03:00,31.9,31.9,28.86,SSE,162,9.0,15.0,100,0.00,,SCT100,0.00,VWS V14.01,2013-01-05 21:03:00,
2013-01-05 15:08:00,32.0,32.0,28.86,South,177,12.0,15.0,100,0.00,,SCT100,0.00,VWS V14.01,2013-01-05 21:08:00,
2013-01-05 15:10:00,31.9,31.9,28.86,South,171,5.0,15.0,100,0.00,,,0.00,VWS V15.00,2013-01-05 21:10:00,
2013-01-05 15:13:00,32.0,32.0,28.85,SSE,161,10.0,10.0,100,0.00,,SCT100,0.00,VWS V14.01,2013-01-05 21:13:00,
2013-01-05 15:18:00,31.9,31.9,28.85,South,176,4.0,13.0,100,0.00,,SCT100,0.00,VWS V14.01,2013-01-05 21:18:00,
2013-01-05 15:20:00,32.0,32.0,28.84,SSW,196,9.0,15.0,100,0.00,,CLR,0.00,VWS V15.00,2013-01-05 21:20:00,
2013-01-05 15:23:00,31.9,31.9,28.85,South,170,6.0,10.0,100,0.00,,SCT100,0.00,VWS V14.01,2013-01-05 21:23:00,
2013-01-05 15:28:00,31.9,31.9,28.85,South,183,2.0,13.0,100,0.00,,SCT100,0.00,VWS V14.01,2013-01-05 21:28:00,
2013-01-05 15:30:00,32.1,32.1,28.85,SSW,210,3.0,12.0,100,0.00,,CLR,0.00,VWS V15.00,2013-01-05 21:30:00,
2013-01-05 15:33:00,31.8,31.8,28.85,SSW,196,4.0,11.0,100,0.00,,SCT100,0.00,VWS V14.01,2013-01-05 21:33:00,
2013-01-05 15:38:00,31.8,31.8,28.85,South,186,3.0,14.0,100,0.00,,CLR,0.00,VWS V14.01,2013-01-05 21:38:00,
2013-01-05 15:40:00,31.9,31.9,28.85,SSW,203,6.0,14.0,100,0.00,,,0.00,VWS V15.00,2013-01-05 21:40:00,
2013-01-05 15:43:00,31.8,31.8,28.85,South,186,4.0,9.0,100,0.00,,CLR,0.00,VWS V14.01,2013-01-05 21:43:00,
2013-01-05 15:48:00,31.8,31.8,28.84,South,187,14.0,14.0,100,0.00,,CLR,0.00,VWS V14.01,2013-01-05 21:48:00,
2013-01-05 15:50:00,31.8,31.8,28.85,South,189,6.0,14.0,100,0.00,,,0.00,VWS V15.00,2013-01-05 21:50:00,
2013-01-05 15:53:00,31.8,31.8,28.85,SSW,193,6.0,16.0,100,0.00,,CLR,0.00,VWS V14.01,2013-01-05 21:53:00,
2013-01-05 15:58:00,31.9,31.9,28.85,South,188,2.0,16.0,100,0.00,,CLR,0.00,VWS V14.01,2013-01-05 21:58:00,
2013-01-05 16:00:00,31.9,31.9,28.84,SW,233,11.0,16.0,100,0.00,,,0.00,VWS V15.00,2013-01-05 22:00:00,
2013-01-05 16:03:00,31.9,31.9,28.85,SSW,198,3.0,13.0,100,0.00,,CLR,0.00,VWS V14.01,2013-01-05 22:03:00,
2013-01-05 16:08:00,31.9,31.9,28.84,South,186,3.0,14.0,100,0.00,,CLR,0.00,VWS V14.01,2013-01-05 22:08:00,
2013-01-05 16:10:00,31.9,31.9,28.84,SSE,164,3.0,14.0,100,0.00,,,0.00,VWS V15.00,2013-01-05 22:10:00,
2013-01-05 16:13:00,31.9,31.9,28.84,SSE,162,4.0,15.0,100,0.00,,CLR,0.00,VWS V14.01,2013-01-05 22:13:00,
2013-01-05 16:18:00,32.0,32.0,28.84,SSE,165,12.0,15.0,100,0.00,,CLR,0.00,VWS V14.01,2013-01-05 22:18:00,
2013-01-05 16:20:00,31.9,31.9,28.84,South,177,3.0,12.0,100,0.00,,CLR,0.00,VWS V15.00,2013-01-05 22:20:00,
2013-01-05 16:23:00,32.0,32.0,28.84,South,191,7.0,12.0,100,0.00,,CLR,0.00,VWS V14.01,2013-01-05 22:23:00,
2013-01-05 16:28:00,32.1,32.1,28.84,SSE,158,5.0,12.0,100,0.00,,CLR,0.00,VWS V14.01,2013-01-05 22:28:00,
2013-01-05 16:30:00,32.1,32.1,28.85,SSW,210,3.0,12.0,100,0.00,,,0.00,VWS V15.00,2013-01-05 22:30:00,
2013-01-05 16:33:00,32.1,32.1,28.85,South,190,4.0,10.0,100,0.00,,CLR,0.00,VWS V14.01,2013-01-05 22:33:00,
2013-01-05 16:38:00,32.1,32.1,28.84,South,176,5.0,10.0,100,0.00,,OVC100,0.00,VWS V14.01,2013-01-05 22:38:00,
2013-01-05 16:40:00,32.1,32.1,28.84,SSE,168,3.0,10.0,100,0.00,,,0.00,VWS V15.00,2013-01-05 22:40:00,
2013-01-05 16:43:00,32.0,32.0,28.84,SSW,201,4.0,10.0,100,0.00,,OVC100,0.00,VWS V14.01,2013-01-05 22:43:00,
2013-01-05 16:48:00,32.1,32.1,28.84,SSW,196,4.0,12.0,100,0.00,,OVC100,0.00,VWS V14.01,2013-01-05 22:48:00,
2013-01-05 16:50:00,32.0,32.0,28.84,South,179,3.0,13.0,100,0.00,,,0.00,VWS V15.00,2013-01-05 22:50:00,
2013-01-05 16:53:00,32.0,32.0,28.84,South,180,7.0,11.0,100,0.00,,OVC100,0.00,VWS V14.01,2013-01-05 22:53:00,
2013-01-05 16:58:00,32.0,32.0,28.84,South,185,2.0,13.0,100,0.00,,OVC100,0.00,VWS V14.01,2013-01-05 22:58:00,
2013-01-05 17:00:00,32.0,32.0,28.84,SSW,200,1.0,13.0,100,0.00,,,0.00,VWS V15.00,2013-01-05 23:00:00,
2013-01-05 17:03:00,31.9,31.9,28.84,SSE,166,6.0,14.0,100,0.00,,OVC100,0.00,VWS V14.01,2013-01-05 23:03:00,
2013-01-05 17:08:00,31.9,31.9,28.84,SSE,161,4.0,14.0,100,0.00,,OVC100,0.00,VWS V14.01,2013-01-05 23:08:00,
2013-01-05 17:10:00,31.9,31.9,28.84,ESE,119,1.0,14.0,100,0.00,,,0.00,VWS V15.00,2013-01-05 23:10:00,
2013-01-05 17:13:00,31.9,31.9,28.84,SSW,213,4.0,8.0,100,0.00,,OVC100,0.00,VWS V14.01,2013-01-05 23:13:00,
2013-01-05 17:18:00,31.9,31.9,28.84,South,178,2.0,12.0,100,0.00,,OVC100,0.00,VWS V14.01,2013-01-05 23:18:00,
2013-01-05 17:20:00,31.9,31.9,28.84,South,177,3.0,12.0,100,0.00,,,0.00,VWS V15.00,2013-01-05 23:20:00,
2013-01-05 17:23:00,31.8,31.8,28.84,South,174,0.0,10.0,100,0.00,,OVC100,0.00,VWS V14.01,2013-01-05 23:23:00,
2013-01-05 17:28:00,31.8,31.8,28.84,South,179,4.0,11.0,100,0.00,,OVC100,0.00,VWS V14.01,2013-01-05 23:28:00,
2013-01-05 17:30:00,31.8,31.8,28.84,South,183,4.0,11.0,100,0.00,,,0.00,VWS V15.00,2013-01-05 23:30:00,
2013-01-05 17:33:00,31.8,31.8,28.84,SSE,159,3.0,11.0,100,0.00,,OVC100,0.00,VWS V14.01,2013-01-05 23:33:00,
2013-01-05 17:38:00,31.9,31.9,28.84,SSE,168,3.0,13.0,100,0.00,,OVC016,0.00,VWS V14.01,2013-01-05 23:38:00,
2013-01-05 17:40:00,32.6,32.6,28.83,South,182,5.0,17.0,100,0.00,,CLR,0.00,VWS V15.00,2013-01-05 23:40:00,
2013-01-05 17:43:00,31.9,31.9,28.83,SSE,161,12.0,12.0,100,0.00,,OVC016,0.00,VWS V14.01,2013-01-05 23:43:00,
2013-01-05 17:48:00,31.9,31.9,28.83,South,174,1.0,12.0,100,0.00,,OVC016,0.00,VWS V14.01,2013-01-05 23:48:00,
2013-01-05 17:50:00,31.9,31.9,28.83,SW,216,2.0,12.0,100,0.00,,,0.00,VWS V15.00,2013-01-05 23:50:00,
2013-01-05 17:53:00,32.0,32.0,28.83,South,175,8.0,12.0,100,0.00,,OVC016,0.00,VWS V14.01,2013-01-05 23:53:00,
2013-01-05 17:58:00,32.1,32.1,28.83,SSW,210,5.0,17.0,100,0.00,,OVC016,0.00,VWS V14.01,2013-01-05 23:58:00,
2013-01-05 18:00:00,32.1,32.1,28.83,South,179,8.0,17.0,100,0.00,,,0.00,VWS V15.00,2013-01-06 00:00:00,
2013-01-05 18:03:00,32.1,32.1,28.83,SW,217,3.0,9.0,100,0.00,,OVC016,0.00,VWS V14.01,2013-01-06 00:03:00,
2013-01-05 18:08:00,32.2,32.2,28.83,SSE,167,3.0,12.0,100,0.00,,,0.00,VWS V14.01,2013-01-06 00:08:00,
2013-01-05 18:10:00,32.2,32.2,28.83,South,191,5.0,15.0,100,0.00,,,0.00,VWS V15.00,2013-01-06 00:10:00,
2013-01-05 18:13:00,32.2,32.2,28.83,South,183,11.0,15.0,100,0.00,,,0.00,VWS V14.01,2013-01-06 00:13:00,
2013-01-05 18:18:00,32.3,32.3,28.83,South,190,10.0,15.0,100,0.00,,,0.00,VWS V14.01,2013-01-06 00:18:00,
2013-01-05 18:20:00,32.4,32.4,28.83,SSW,196,6.0,15.0,100,0.00,,,0.00,VWS V15.00,2013-01-06 00:20:00,
2013-01-05 18:23:00,32.4,32.4,28.83,SSW,200,5.0,11.0,100,0.00,,,0.00,VWS V14.01,2013-01-06 00:23:00,
2013-01-05 18:28:00,32.5,32.5,28.83,SSW,193,0.0,12.0,100,0.00,,,0.00,VWS V14.01,2013-01-06 00:28:00,
2013-01-05 18:30:00,32.5,32.5,28.83,SE,144,10.0,14.0,100,0.00,,,0.00,VWS V15.00,2013-01-06 00:30:00,
2013-01-05 18:33:00,32.6,32.6,28.83,SSE,167,2.0,17.0,100,0.00,,,0.00,VWS V14.01,2013-01-06 00:33:00,
2013-01-05 18:38:00,32.6,32.6,28.82,South,182,10.0,17.0,100,0.00,,,0.00,VWS V14.01,2013-01-06 00:38:00,
2013-01-05 18:40:00,32.6,32.6,28.83,South,182,5.0,17.0,100,0.00,,,0.00,VWS V15.00,2013-01-06 00:40:00,
2013-01-05 18:43:00,32.6,32.6,28.82,South,174,7.0,10.0,100,0.00,,,0.00,VWS V14.01,2013-01-06 00:43:00,
2013-01-05 18:48:00,32.6,32.6,28.83,SW,220,7.0,15.0,100,0.00,,,0.00,VWS V14.01,2013-01-06 00:48:00,
2013-01-05 18:50:00,32.6,32.6,28.83,South,174,4.0,15.0,100,0.00,,,0.00,VWS V15.00,2013-01-06 00:50:00,
2013-01-05 18:53:00,32.7,32.7,28.82,SSW,207,4.0,11.0,100,0.00,,,0.00,VWS V14.01,2013-01-06 00:53:00,
2013-01-05 18:58:00,32.7,32.7,28.82,South,182,10.0,17.0,100,0.00,,,0.00,VWS V14.01,2013-01-06 00:58:00,
2013-01-05 19:00:00,32.7,32.7,28.82,South,183,2.0,17.0,100,0.00,,,0.00,VWS V15.00,2013-01-06 01:00:00,
2013-01-05 19:03:00,32.8,32.8,28.82,South,172,4.0,13.0,100,0.00,,,0.00,VWS V14.01,2013-01-06 01:03:00,
2013-01-05 19:08:00,32.9,32.9,28.82,SSW,209,5.0,20.0,100,0.00,,,0.00,VWS V14.01,2013-01-06 01:08:00,
2013-01-05 19:10:00,33.2,33.2,28.81,South,178,7.0,16.0,100,0.00,,CLR,0.00,VWS V15.00,2013-01-06 01:10:00,
2013-01-05 19:13:00,33.1,33.1,28.82,SSW,205,6.0,16.0,100,0.00,,,0.00,VWS V14.01,2013-01-06 01:13:00,
2013-01-05 19:18:00,33.1,33.1,28.82,SSE,155,3.0,16.0,100,0.00,,,0.00,VWS V14.01,2013-01-06 01:18:00,
2013-01-05 19:20:00,33.1,33.1,28.82,SSW,197,8.0,16.0,100,0.00,,,0.00,VWS V15.00,2013-01-06 01:20:00,
2013-01-05 19:23:00,33.1,33.1,28.82,SSW,197,3.0,14.0,100,0.00,,,0.00,VWS V14.01,2013-01-06 01:23:00,
2013-01-05 19:28:00,33.0,33.0,28.82,South,182,9.0,14.0,100,0.00,,,0.00,VWS V14.01,2013-01-06 01:28:00,
2013-01-05 19:30:00,33.1,33.1,28.82,South,182,5.0,21.0,100,0.00,,,0.00,VWS V15.00,2013-01-06 01:30:00,
2013-01-05 19:33:00,33.1,33.1,28.82,South,177,4.0,12.0,100,0.00,,,0.00,VWS V14.01,2013-01-06 01:33:00,
2013-01-05 19:38:00,33.1,33.1,28.82,SSW,196,2.0,12.0,100,0.00,,,0.00,VWS V14.01,2013-01-06 01:38:00,
2013-01-05 19:40:00,33.1,33.1,28.82,South,178,4.0,12.0,100,0.00,,,0.00,VWS V15.00,2013-01-06 01:40:00,
2013-01-05 19:43:00,33.1,33.1,28.82,SSW,208,3.0,13.0,100,0.00,,,0.00,VWS V14.01,2013-01-06 01:43:00,
2013-01-05 19:48:00,33.1,33.1,28.82,SSE,168,5.0,16.0,100,0.00,,,0.00,VWS V14.01,2013-01-06 01:48:00,
2013-01-05 19:50:00,33.1,33.1,28.82,SSW,193,11.0,16.0,100,0.00,,,0.00,VWS V15.00,2013-01-06 01:50:00,
2013-01-05 19:53:00,33.1,33.1,28.82,South,173,7.0,12.0,100,0.00,,,0.00,VWS V14.01,2013-01-06 01:53:00,
2013-01-05 19:58:00,33.2,33.2,28.81,SSE,156,9.0,13.0,100,0.00,,,0.00,VWS V14.01,2013-01-06 01:58:00,
2013-01-05 20:00:00,33.2,33.2,28.81,SSW,204,11.0,14.0,100,0.00,,,0.00,VWS V15.00,2013-01-06 02:00:00,
2013-01-05 20:03:00,33.2,33.2,28.81,SSW,195,4.0,16.0,100,0.00,,,0.00,VWS V14.01,2013-01-06 02:03:00,
2013-01-05 20:08:00,33.2,33.2,28.81,SSW,211,8.0,16.0,100,0.00,,,0.00,VWS V14.01,2013-01-06 02:08:00,
2013-01-05 20:10:00,33.2,33.2,28.81,South,178,7.0,16.0,100,0.00,,,0.00,VWS V15.00,2013-01-06 02:10:00,
2013-01-05 20:13:00,33.2,33.2,28.81,South,177,3.0,11.0,100,0.00,,,0.00,VWS V14.01,2013-01-06 02:13:00,
2013-01-05 20:18:00,33.2,33.2,28.81,South,191,6.0,12.0,100,0.00,,,0.00,VWS V14.01,2013-01-06 02:18:00,
2013-01-05 20:20:00,33.2,33.2,28.81,South,187,7.0,12.0,100,0.00,,,0.00,VWS V15.00,2013-01-06 02:20:00,
2013-01-05 20:23:00,33.2,33.2,28.80,SSW,201,5.0,12.0,100,0.00,,,0.00,VWS V14.01,2013-01-06 02:23:00,
2013-01-05 20:28:00,33.2,33.2,28.81,SSW,204,8.0,16.0,100,0.00,,,0.00,VWS V14.01,2013-01-06 02:28:00,
2013-01-05 20:30:00,33.3,33.3,28.81,South,177,6.0,16.0,100,0.00,,,0.00,VWS V15.00,2013-01-06 02:30:00,
2013-01-05 20:33:00,33.3,33.3,28.81,SSW,200,2.0,14.0,100,0.00,,,0.00,VWS V14.01,2013-01-06 02:33:00,
2013-01-05 20:38:00,33.3,33.3,28.81,SSW,199,6.0,15.0,100,0.00,,OVC021,0.00,VWS V14.01,2013-01-06 02:38:00,
2013-01-05 20:40:00,33.3,33.3,28.80,South,182,5.0,15.0,100,0.00,,,0.00,VWS V15.00,2013-01-06 02:40:00,
2013-01-05 20:43:00,33.3,33.3,28.81,SSW,193,5.0,9.0,100,0.00,,OVC021,0.00,VWS V14.01,2013-01-06 02:43:00,
2013-01-05 20:48:00,33.2,33.2,28.81,South,189,3.0,10.0,100,0.00,,OVC021,0.00,VWS V14.01,2013-01-06 02:48:00,
2013-01-05 20:50:00,33.2,33.2,28.80,South,177,4.0,10.0,100,0.00,,,0.00,VWS V15.00,2013-01-06 02:50:00,
2013-01-05 20:53:00,33.3,33.3,28.81,South,190,5.0,11.0,100,0.00,,OVC021,0.00,VWS V14.01,2013-01-06 02:53:00,
2013-01-05 20:58:00,33.3,33.3,28.81,SSW,201,5.0,16.0,100,0.00,,OVC021,0.00,VWS V14.01,2013-01-06 02:58:00,
2013-01-05 21:00:00,33.3,33.3,28.80,SSW,194,4.0,14.0,100,0.00,,CLR,0.00,VWS V15.00,2013-01-06 03:00:00,
2013-01-05 21:03:00,33.3,33.3,28.81,SSW,200,6.0,8.0,100,0.00,,OVC021,0.00,VWS V14.01,2013-01-06 03:03:00,
2013-01-05 21:08:00,33.2,33.2,28.81,SSW,203,4.0,13.0,100,0.00,,OVC021,0.00,VWS V14.01,2013-01-06 03:08:00,
2013-01-05 21:10:00,33.3,33.3,28.81,SSW,205,5.0,13.0,100,0.00,,,0.00,VWS V15.00,2013-01-06 03:10:00,
2013-01-05 21:13:00,33.3,33.3,28.80,South,187,6.0,13.0,100,0.00,,OVC021,0.00,VWS V14.01,2013-01-06 03:13:00,
2013-01-05 21:18:00,33.3,33.3,28.80,South,178,10.0,15.0,100,0.00,,OVC021,0.00,VWS V14.01,2013-01-06 03:18:00,
2013-01-05 21:20:00,33.3,33.3,28.80,SSW,203,5.0,15.0,100,0.00,,,0.00,VWS V15.00,2013-01-06 03:20:00,
2013-01-05 21:23:00,33.3,33.3,28.80,SSW,192,3.0,11.0,100,0.00,,OVC021,0.00,VWS V14.01,2013-01-06 03:23:00,
2013-01-05 21:28:00,33.3,33.3,28.80,South,186,6.0,13.0,100,0.00,,OVC021,0.00,VWS V14.01,2013-01-06 03:28:00,
2013-01-05 21:30:00,33.1,33.1,28.80,WSW,257,4.0,10.0,100,0.00,,CLR,0.00,VWS V15.00,2013-01-06 03:30:00,
2013-01-05 21:33:00,33.2,33.2,28.80,SW,217,5.0,10.0,100,0.00,,OVC021,0.00,VWS V14.01,2013-01-06 03:33:00,
2013-01-05 21:38:00,33.2,33.2,28.80,SW,215,3.0,15.0,100,0.00,,OVC036,0.00,VWS V14.01,2013-01-06 03:38:00,
2013-01-05 21:40:00,33.0,33.0,28.80,SW,221,3.0,10.0,100,0.00,,CLR,0.00,VWS V15.00,2013-01-06 03:40:00,
2013-01-05 21:43:00,33.2,33.2,28.80,SSW,213,4.0,12.0,100,0.00,,OVC036,0.00,VWS V14.01,2013-01-06 03:43:00,
2013-01-05 21:48:00,33.2,33.2,28.80,SW,225,5.0,14.0,100,0.00,,OVC036,0.00,VWS V14.01,2013-01-06 03:48:00,
2013-01-05 21:50:00,33.3,33.3,28.80,SW,219,7.0,14.0,100,0.00,,,0.00,VWS V15.00,2013-01-06 03:50:00,
2013-01-05 21:53:00,33.3,33.3,28.80,SW,224,7.0,12.0,100,0.00,,OVC035,0.00,VWS V14.01,2013-01-06 03:53:00,
2013-01-05 21:58:00,33.3,33.3,28.81,SSW,204,9.0,14.0,100,0.00,,OVC035,0.00,VWS V14.01,2013-01-06 03:58:00,
2013-01-05 22:00:00,33.3,33.3,28.80,SSW,194,4.0,14.0,100,0.00,,,0.00,VWS V15.00,2013-01-06 04:00:00,
2013-01-05 22:03:00,33.2,33.2,28.80,SSW,194,4.0,10.0,100,0.00,,OVC035,0.00,VWS V14.01,2013-01-06 04:03:00,
2013-01-05 22:08:00,33.1,33.1,28.80,SSW,206,5.0,10.0,100,0.00,,OVC035,0.00,VWS V14.01,2013-01-06 04:08:00,
2013-01-05 22:10:00,33.1,33.1,28.80,SW,214,4.0,10.0,100,0.00,,,0.00,VWS V15.00,2013-01-06 04:10:00,
2013-01-05 22:13:00,33.1,33.1,28.80,SW,214,2.0,7.0,100,0.00,,OVC035,0.00,VWS V14.01,2013-01-06 04:13:00,
2013-01-05 22:18:00,33.1,33.1,28.80,South,184,4.0,9.0,100,0.00,,OVC035,0.00,VWS V14.01,2013-01-06 04:18:00,
2013-01-05 22:20:00,32.1,32.1,28.79,SSW,194,4.0,14.0,100,0.00,,CLR,0.00,VWS V15.00,2013-01-06 04:20:00,
2013-01-05 22:23:00,33.1,33.1,28.80,SW,216,3.0,6.0,100,0.00,,OVC035,0.00,VWS V14.01,2013-01-06 04:23:00,
2013-01-05 22:28:00,33.1,33.1,28.80,SSW,192,4.0,8.0,100,0.00,,OVC035,0.00,VWS V14.01,2013-01-06 04:28:00,
2013-01-05 22:30:00,33.1,33.1,28.80,WSW,257,4.0,10.0,100,0.00,,,0.00,VWS V15.00,2013-01-06 04:30:00,
2013-01-05 22:33:00,33.1,33.1,28.80,South,191,4.0,10.0,100,0.00,,OVC035,0.00,VWS V14.01,2013-01-06 04:33:00,
2013-01-05 22:38:00,33.0,33.0,28.80,South,180,3.0,10.0,100,0.00,,OVC023,0.00,VWS V14.01,2013-01-06 04:38:00,
2013-01-05 22:40:00,33.0,33.0,28.80,SW,221,3.0,10.0,100,0.00,,,0.00,VWS V15.00,2013-01-06 04:40:00,
2013-01-05 22:43:00,33.0,33.0,28.80,SW,224,4.0,9.0,100,0.00,,OVC023,0.00,VWS V14.01,2013-01-06 04:43:00,
2013-01-05 22:48:00,32.8,32.8,28.80,SSW,204,5.0,9.0,100,0.00,,OVC023,0.00,VWS V14.01,2013-01-06 04:48:00,
2013-01-05 22:50:00,30.2,30.2,28.80,South,185,3.0,11.0,100,0.00,,CLR,0.00,VWS V15.00,2013-01-06 04:50:00,
2013-01-05 22:53:00,32.7,32.7,28.80,SW,227,4.0,9.0,100,0.00,,OVC023,0.00,VWS V14.01,2013-01-06 04:53:00,
2013-01-05 22:58:00,32.7,32.7,28.79,SSW,199,1.0,9.0,100,0.00,,OVC023,0.00,VWS V14.01,2013-01-06 04:58:00,
2013-01-05 23:00:00,32.7,32.7,28.80,West,267,4.0,4.0,100,0.00,,OVC023,0.00,VWS V14.01,2013-01-06 05:00:00,
2013-01-05 23:01:00,32.7,32.7,28.79,SW,229,1.0,6.0,100,0.00,,OVC023,0.00,VWS V14.01,2013-01-06 05:01:00,
2013-01-05 23:05:00,32.7,32.7,28.79,WSW,257,7.0,11.0,100,0.00,,OVC023,0.00,VWS V14.01,2013-01-06 05:05:00,
2013-01-05 23:10:00,32.6,32.6,28.79,SW,226,5.0,10.0,100,0.00,,OVC023,0.00,VWS V14.01,2013-01-06 05:10:00,
2013-01-05 23:15:00,32.4,32.4,28.79,WSW,255,8.0,14.0,100,0.00,,OVC023,0.00,VWS V14.01,2013-01-06 05:15:00,
2013-01-05 23:20:00,32.0,32.0,28.79,WSW,249,3.0,5.0,100,0.00,,OVC023,0.00,VWS V14.01,2013-01-06 05:20:00,
2013-01-05 23:25:00,31.7,31.7,28.79,WSW,241,4.0,13.0,100,0.00,,OVC023,0.00,VWS V14.01,2013-01-06 05:25:00,
2013-01-05 23:30:00,31.5,31.5,28.79,West,264,8.0,9.0,100,0.00,,OVC023,0.00,VWS V14.01,2013-01-06 05:30:00,
2013-01-05 23:35:00,31.2,31.2,28.79,West,264,6.0,15.0,100,0.00,,OVC033,0.00,VWS V14.01,2013-01-06 05:35:00,
2013-01-05 23:40:00,30.9,30.9,28.79,SSW,203,4.0,8.0,100,0.00,,OVC033,0.00,VWS V14.01,2013-01-06 05:40:00,
2013-01-05 23:45:00,30.5,30.5,28.79,SW,225,8.0,11.0,100,0.00,,OVC033,0.00,VWS V14.01,2013-01-06 05:45:00,
2013-01-05 23:50:00,30.1,30.1,28.80,WSW,254,9.0,10.0,100,0.00,,OVC030,0.00,VWS V14.01,2013-01-06 05:50:00,
2013-01-05 23:55:00,29.7,29.7,28.80,WSW,241,13.0,13.0,100,0.00,,OVC030,0.00,VWS V14.01,2013-01-06 05:55:00,